Time;durP1;ratioP1;P1;durP2;ratioP2;P2;SDS_P1;SDS_P2;PMS_P1;PMS_P2;Temp;Humidity;BMP_temperature;BMP_pressure;BME280_temperature;BME280_humidity;BME280_pressure;Samples;Min_cycle;Max_cycle;Signal;HPM_P1;HPM_P2
2023/04/13 00:00:24;;;;;;;5.32;3.13;;;;;;;8.49;76.36;99669.41;5089874;28;20387;-73
2023/04/13 00:02:55;;;;;;;5.20;3.17;;;;;;;8.48;76.46;99634.19;5073380;28;20102;-72
2023/04/13 00:05:22;;;;;;;6.35;3.08;;;;;;;8.55;75.56;99637.88;5083571;28;20036;-73
2023/04/13 00:07:48;;;;;;;5.47;3.42;;;;;;;8.87;76.22;99686.88;5079747;28;20036;-72
2023/04/13 00:10:14;;;;;;;10.55;3.70;;;;;;;8.89;74.71;99686.09;5076168;28;20039;-74
2023/04/13 00:12:41;;;;;;;6.28;3.10;;;;;;;8.64;74.74;99656.16;5089664;28;20078;-73
2023/04/13 00:15:08;;;;;;;7.32;3.13;;;;;;;8.66;74.92;99690.53;5090882;28;20470;-73
2023/04/13 00:17:34;;;;;;;6.70;3.40;;;;;;;8.32;77.45;99676.50;5072316;28;20173;-72
2023/04/13 00:20:07;;;;;;;4.95;3.20;;;;;;;8.10;79.67;99690.38;5091627;28;20087;-71
2023/04/13 00:22:33;;;;;;;6.32;3.50;;;;;;;7.81;81.56;99672.22;5091491;28;20497;-74
2023/04/13 00:24:58;;;;;;;6.43;3.53;;;;;;;7.79;81.30;99673.88;5091319;28;20035;-73
2023/04/13 00:27:29;;;;;;;5.30;3.42;;;;;;;7.77;80.72;99683.22;5091010;28;20097;-73
2023/04/13 00:29:57;;;;;;;6.47;3.42;;;;;;;7.38;81.30;99629.63;5091276;28;20028;-70
2023/04/13 00:32:24;;;;;;;6.05;3.70;;;;;;;7.72;80.67;99695.03;5091535;28;20047;-73
2023/04/13 00:34:50;;;;;;;5.93;3.60;;;;;;;7.47;80.65;99649.63;5091074;28;20070;-70
2023/04/13 00:37:17;;;;;;;6.63;3.63;;;;;;;7.64;80.11;99689.63;5090998;28;20102;-71
2023/04/13 00:39:45;;;;;;;6.63;3.35;;;;;;;7.76;80.90;99704.59;5091361;28;20069;-71
2023/04/13 00:42:11;;;;;;;8.35;3.63;;;;;;;7.51;83.24;99711.41;5090837;28;20071;-72
2023/04/13 00:44:37;;;;;;;7.03;3.95;;;;;;;7.34;83.92;99689.34;5091004;28;20043;-76
2023/04/13 00:47:04;;;;;;;8.20;4.60;;;;;;;7.39;82.79;99698.09;5091120;28;20107;-73
2023/04/13 00:49:32;;;;;;;8.48;4.35;;;;;;;7.50;82.21;99703.66;5090554;28;20478;-73
2023/04/13 00:52:00;;;;;;;7.18;3.92;;;;;;;7.48;82.65;99690.75;5091148;28;20111;-73
2023/04/13 00:54:28;;;;;;;6.40;3.90;;;;;;;7.40;82.36;99669.03;5090625;28;20551;-70
2023/04/13 00:56:54;;;;;;;6.78;4.03;;;;;;;7.62;82.57;99719.50;5090624;28;20036;-72
2023/04/13 00:59:21;;;;;;;6.78;4.25;;;;;;;7.64;82.40;99714.41;5090582;28;20531;-71
2023/04/13 01:01:49;;;;;;;6.22;4.35;;;;;;;7.63;82.79;99717.81;5109630;28;20065;-72
2023/04/13 01:04:17;;;;;;;5.60;3.90;;;;;;;7.53;81.96;99701.19;5111090;28;20058;-73
2023/04/13 01:06:51;;;;;;;8.52;4.93;;;;;;;7.55;82.05;99714.97;5111059;28;20031;-76
2023/04/13 01:09:30;;;;;;;7.00;4.30;;;;;;;7.52;82.96;99718.28;5110707;28;20382;-72
2023/04/13 01:12:12;;;;;;;6.40;3.80;;;;;;;7.60;83.65;99710.84;5110460;28;20547;-69
2023/04/13 01:14:48;;;;;;;8.10;4.30;;;;;;;7.62;82.92;99714.38;5111014;28;20040;-72
2023/04/13 01:17:20;;;;;;;6.30;4.47;;;;;;;7.56;82.34;99716.72;5111104;28;20039;-75
2023/04/13 01:20:10;;;;;;;6.75;4.57;;;;;;;7.47;83.03;99709.53;5091434;28;20047;-73
2023/04/13 01:22:40;;;;;;;6.43;4.75;;;;;;;7.59;83.28;99720.28;5110771;28;20039;-74
2023/04/13 01:25:13;;;;;;;;;;;;;;;7.58;83.18;99715.94;5111395;28;20453;-71
2023/04/13 01:27:50;;;;;;;6.70;4.68;;;;;;;7.19;84.34;99697.34;5110738;28;19911;-73
2023/04/13 01:30:20;;;;;;;7.32;4.57;;;;;;;7.26;85.41;99735.28;5110586;28;20104;-74
2023/04/13 01:32:48;;;;;;;7.18;4.75;;;;;;;7.16;85.04;99741.75;5110643;28;20031;-73
2023/04/13 01:35:14;;;;;;;7.45;4.22;;;;;;;6.82;84.66;99749.81;5110449;28;20043;-71
2023/04/13 01:37:43;;;;;;;6.45;4.50;;;;;;;6.77;85.66;99740.25;5110620;28;20051;-74
2023/04/13 01:40:12;;;;;;;7.68;4.40;;;;;;;6.76;85.72;99737.63;5110351;28;20035;-73
2023/04/13 01:42:42;;;;;;;5.63;4.63;;;;;;;6.67;86.16;99722.72;5110206;28;20038;-71
2023/04/13 01:45:16;;;;;;;;;;;;;;;6.67;86.97;99735.56;5110897;28;20043;-73
2023/04/13 01:47:59;;;;;;;8.25;4.10;;;;;;;6.25;87.01;99656.06;5110611;28;19914;-73
2023/04/13 01:50:33;;;;;;;7.30;4.18;;;;;;;6.76;86.68;99729.91;5110207;28;20039;-71
2023/04/13 01:53:06;;;;;;;6.97;4.15;;;;;;;6.84;86.25;99727.66;5110397;28;20395;-73
2023/04/13 01:55:36;;;;;;;6.63;4.13;;;;;;;6.98;85.23;99734.22;5110759;28;20050;-74
2023/04/13 01:58:03;;;;;;;6.45;3.83;;;;;;;7.02;84.79;99730.94;5110545;28;20035;-73
2023/04/13 02:00:34;;;;;;;7.00;3.75;;;;;;;7.07;83.95;99726.00;5110444;28;20035;-73
2023/04/13 02:03:03;;;;;;;5.18;3.55;;;;;;;6.89;83.96;99714.22;5110561;28;20463;-73
2023/04/13 02:05:28;;;;;;;10.27;4.82;;;;;;;6.83;85.46;99742.19;5110456;28;20062;-75
2023/04/13 02:07:53;;;;;;;6.18;4.20;;;;;;;6.69;87.08;99743.31;5111300;28;20059;-73
2023/04/13 02:10:19;;;;;;;7.95;4.90;;;;;;;6.45;88.86;99741.47;5112623;28;20580;-73
2023/04/13 02:12:45;;;;;;;9.15;5.07;;;;;;;6.31;90.67;99757.16;5111549;28;20031;-73
2023/04/13 02:15:10;;;;;;;7.15;5.22;;;;;;;6.07;92.15;99758.66;5110626;28;20031;-70
2023/04/13 02:17:35;;;;;;;8.57;5.45;;;;;;;5.79;93.52;99759.97;5110667;28;20040;-73
2023/04/13 02:20:07;;;;;;;7.72;5.40;;;;;;;5.62;94.76;99761.78;5110003;28;20040;-75
2023/04/13 02:22:33;;;;;;;7.20;5.03;;;;;;;5.54;96.09;99765.69;5075801;28;20410;-72
2023/04/13 02:24:59;;;;;;;14.77;5.28;;;;;;;5.52;96.69;99760.50;5092995;28;20035;-73
2023/04/13 02:27:25;;;;;;;7.05;5.18;;;;;;;5.29;96.89;99721.91;5093898;28;20032;-73
2023/04/13 02:29:51;;;;;;;6.47;5.20;;;;;;;5.58;97.00;99759.91;5074667;28;20040;-70
2023/04/13 02:32:16;;;;;;;6.40;4.80;;;;;;;5.58;96.32;99763.34;5093737;28;20466;-73
2023/04/13 02:34:42;;;;;;;10.50;5.20;;;;;;;5.48;96.73;99761.16;5093470;28;20055;-76
2023/04/13 02:37:08;;;;;;;8.15;4.40;;;;;;;5.36;96.85;99751.25;5093324;28;20059;-74
2023/04/13 02:39:33;;;;;;;6.95;4.45;;;;;;;5.37;96.92;99760.69;5093495;28;20043;-75
2023/04/13 02:42:01;;;;;;;8.25;4.70;;;;;;;5.42;96.50;99761.75;5075125;28;20103;-74
2023/04/13 02:44:27;;;;;;;9.07;5.13;;;;;;;5.44;96.50;99765.25;5093316;28;20042;-72
2023/04/13 02:46:52;;;;;;;7.20;4.55;;;;;;;5.39;96.97;99773.53;5093329;28;20158;-76
2023/04/13 02:49:18;;;;;;;6.00;4.43;;;;;;;5.38;96.35;99771.78;5093503;28;20510;-75
2023/04/13 02:51:43;;;;;;;7.53;4.50;;;;;;;5.43;95.47;99780.56;5093086;28;20032;-73
2023/04/13 02:54:12;;;;;;;9.80;4.50;;;;;;;5.45;94.45;99769.56;5093187;28;20123;-72
2023/04/13 02:56:38;;;;;;;6.72;4.43;;;;;;;5.27;94.15;99728.66;5093040;28;20039;-72
2023/04/13 02:59:03;;;;;;;6.13;4.20;;;;;;;5.74;93.45;99781.97;5093500;28;20481;-73
2023/04/13 03:01:29;;;;;;;8.95;4.78;;;;;;;5.89;92.00;99768.97;5093290;28;20115;-72
2023/04/13 03:03:55;;;;;;;6.25;4.05;;;;;;;6.03;91.23;99785.88;5092779;28;20062;-73
2023/04/13 03:06:23;;;;;;;9.00;4.10;;;;;;;6.18;89.42;99779.63;5092734;28;20036;-70
2023/04/13 03:08:50;;;;;;;7.20;4.22;;;;;;;6.33;88.53;99780.31;5092950;28;20127;-70
2023/04/13 03:11:16;;;;;;;6.65;4.28;;;;;;;6.42;87.12;99785.81;5092599;28;20050;-73
2023/04/13 03:13:42;;;;;;;6.28;4.22;;;;;;;6.45;86.34;99790.19;5085154;28;20037;-73
2023/04/13 03:16:10;;;;;;;6.72;3.95;;;;;;;6.18;86.28;99760.03;5072744;28;20029;-73
2023/04/13 03:18:37;;;;;;;10.00;3.83;;;;;;;6.27;86.90;99791.16;5072355;28;20072;-73
2023/04/13 03:21:05;;;;;;;5.78;4.32;;;;;;;6.20;87.80;99798.53;5109719;28;20044;-73
2023/04/13 03:23:31;;;;;;;7.72;4.03;;;;;;;5.92;89.05;99803.28;5113023;28;20046;-71
2023/04/13 03:25:56;;;;;;;6.80;4.40;;;;;;;5.84;90.08;99802.03;5112940;28;20036;-73
2023/04/13 03:28:22;;;;;;;6.30;4.38;;;;;;;5.78;90.84;99807.78;5113438;28;20507;-73
2023/04/13 03:30:48;;;;;;;6.25;4.57;;;;;;;5.78;90.96;99805.22;5112173;28;20039;-73
2023/04/13 03:33:13;;;;;;;6.75;4.55;;;;;;;5.79;90.99;99799.28;5092414;28;20113;-73
2023/04/13 03:35:39;;;;;;;7.05;4.30;;;;;;;5.82;90.52;99799.44;5086357;28;20441;-73
2023/04/13 03:38:04;;;;;;;8.68;3.92;;;;;;;5.92;90.86;99805.84;5089706;28;20553;-73
2023/04/13 03:40:29;;;;;;;10.90;4.85;;;;;;;5.76;91.78;99780.34;5082425;28;20035;-70
2023/04/13 03:42:55;;;;;;;7.28;4.30;;;;;;;5.86;92.14;99805.56;5081248;28;20027;-73
2023/04/13 03:45:21;;;;;;;9.02;4.28;;;;;;;5.86;92.64;99797.00;5082700;28;20099;-74
2023/04/13 03:47:46;;;;;;;8.18;4.40;;;;;;;5.89;89.78;99798.00;5080695;28;20038;-73
2023/04/13 03:50:12;;;;;;;6.25;4.30;;;;;;;5.76;89.56;99772.66;5082128;28;20115;-71
2023/04/13 03:52:37;;;;;;;8.15;4.63;;;;;;;5.93;89.30;99817.84;5077555;28;20111;-75
2023/04/13 03:55:04;;;;;;;5.40;4.28;;;;;;;5.95;87.94;99817.91;5072019;28;20448;-74
2023/04/13 03:57:29;;;;;;;5.40;3.88;;;;;;;5.74;87.96;99828.06;5068491;28;20036;-73
2023/04/13 03:59:55;;;;;;;7.43;4.15;;;;;;;5.37;88.67;99781.16;5071788;28;20135;-72
2023/04/13 04:02:20;;;;;;;5.80;3.80;;;;;;;5.63;89.90;99827.56;5053851;28;20037;-76
2023/04/13 04:04:46;;;;;;;6.63;4.20;;;;;;;5.63;90.55;99825.88;5079046;28;20063;-73
2023/04/13 04:07:12;;;;;;;9.88;5.10;;;;;;;5.40;92.27;99845.28;5089921;28;20044;-70
2023/04/13 04:09:38;;;;;;;7.35;4.80;;;;;;;5.25;93.27;99831.75;5078111;28;20097;-74
2023/04/13 04:12:03;;;;;;;15.13;7.78;;;;;;;5.27;93.47;99858.28;5078939;28;20497;-74
2023/04/13 04:14:29;;;;;;;30.10;11.93;;;;;;;5.17;94.45;99862.97;5087237;28;20093;-73
2023/04/13 04:16:54;;;;;;;19.13;10.77;;;;;;;5.00;95.40;99853.59;5091542;28;20402;-73
2023/04/13 04:19:20;;;;;;;10.65;6.85;;;;;;;4.87;96.76;99864.88;5091074;28;20040;-73
2023/04/13 04:21:45;;;;;;;8.13;5.03;;;;;;;4.76;98.11;99872.03;5091451;28;20121;-72
2023/04/13 04:24:19;;;;;;;7.57;4.90;;;;;;;4.60;99.00;99872.03;5091521;28;20490;-73
2023/04/13 04:26:49;;;;;;;7.95;5.07;;;;;;;4.58;100.00;99883.88;5089679;28;20122;-74
2023/04/13 04:29:20;;;;;;;7.43;4.88;;;;;;;4.65;100.00;99885.97;5091825;28;20050;-71
2023/04/13 04:31:51;;;;;;;8.70;4.93;;;;;;;4.79;100.00;99891.78;5091660;28;20105;-70
2023/04/13 04:34:20;;;;;;;20.67;5.53;;;;;;;4.80;100.00;99894.41;5072275;28;20501;-71
2023/04/13 04:36:49;;;;;;;9.30;5.28;;;;;;;4.83;99.77;99886.88;5091299;28;20048;-73
2023/04/13 04:39:20;;;;;;;9.27;5.45;;;;;;;4.68;99.77;99843.50;5090967;28;20493;-71
2023/04/13 04:41:47;;;;;;;8.15;4.68;;;;;;;5.09;98.56;99900.09;5073784;28;20147;-74
2023/04/13 04:44:15;;;;;;;7.97;5.20;;;;;;;5.11;98.56;99910.38;5091174;28;20169;-70
2023/04/13 04:46:42;;;;;;;7.13;4.68;;;;;;;5.18;98.79;99908.25;5090437;28;20513;-72
2023/04/13 04:49:08;;;;;;;10.75;4.85;;;;;;;5.24;99.51;99901.66;5091416;28;20055;-71
2023/04/13 04:51:35;;;;;;;8.77;5.43;;;;;;;5.32;99.78;99898.69;5091827;28;20036;-71
2023/04/13 04:54:02;;;;;;;8.90;5.40;;;;;;;5.57;99.90;99917.78;5091305;28;20036;-71
2023/04/13 04:56:28;;;;;;;16.88;11.48;;;;;;;5.77;99.21;99913.59;5091245;28;20039;-70
2023/04/13 04:58:54;;;;;;;16.88;10.80;;;;;;;5.89;97.84;99907.28;5073015;28;20036;-70
2023/04/13 05:01:25;;;;;;;9.68;6.38;;;;;;;6.04;97.87;99908.03;5090899;28;20448;-71
2023/04/13 05:03:50;;;;;;;8.60;5.13;;;;;;;6.28;96.00;99907.38;5090809;28;20060;-71
2023/04/13 05:06:15;;;;;;;8.60;5.38;;;;;;;6.40;93.66;99904.50;5091253;28;20072;-71
2023/04/13 05:08:43;;;;;;;7.05;5.20;;;;;;;6.34;93.38;99888.84;5090695;28;20409;-71
2023/04/13 05:11:09;;;;;;;8.32;4.43;;;;;;;6.53;93.61;99906.81;5090846;28;20036;-71
2023/04/13 05:13:34;;;;;;;6.05;4.40;;;;;;;6.58;94.24;99910.47;5090762;28;20533;-71
2023/04/13 05:16:00;;;;;;;7.57;5.13;;;;;;;6.68;93.28;99885.19;5090509;28;20142;-74
2023/04/13 05:18:29;;;;;;;6.32;4.07;;;;;;;6.88;91.53;99899.75;5091265;28;20040;-73
2023/04/13 05:20:55;;;;;;;6.50;4.60;;;;;;;6.95;89.76;99904.34;5091178;28;20032;-70
2023/04/13 05:23:21;;;;;;;8.25;4.93;;;;;;;7.00;89.75;99894.25;5090715;28;20035;-71
2023/04/13 05:25:46;;;;;;;7.88;4.80;;;;;;;7.00;89.98;99901.97;5090773;28;20035;-72
2023/04/13 05:28:12;;;;;;;9.07;5.05;;;;;;;7.04;90.93;99893.59;5072363;28;20079;-75
2023/04/13 05:30:37;;;;;;;6.60;4.68;;;;;;;7.04;91.03;99875.63;5090483;28;20570;-74
2023/04/13 05:33:05;;;;;;;9.60;5.20;;;;;;;7.20;90.88;99894.22;5090615;28;20040;-72
2023/04/13 05:35:30;;;;;;;6.25;4.45;;;;;;;7.31;90.16;99892.09;5090652;28;20046;-71
2023/04/13 05:37:56;;;;;;;6.55;4.20;;;;;;;7.48;88.51;99888.50;5090401;28;20114;-75
2023/04/13 05:40:21;;;;;;;7.80;5.00;;;;;;;7.58;89.21;99889.75;5090691;28;20035;-71
2023/04/13 05:42:47;;;;;;;7.75;5.07;;;;;;;7.68;88.57;99891.88;5090437;28;20101;-73
2023/04/13 05:45:15;;;;;;;10.30;4.63;;;;;;;7.85;86.16;99891.63;5090099;28;20040;-70
2023/04/13 05:47:41;;;;;;;12.70;6.88;;;;;;;7.94;86.75;99887.72;5090588;28;20032;-70
2023/04/13 05:50:09;;;;;;;6.10;3.80;;;;;;;8.15;85.50;99885.91;5075578;28;20102;-75
2023/04/13 05:52:35;;;;;;;7.10;3.83;;;;;;;8.50;84.37;99892.38;5071422;28;20052;-75
2023/04/13 05:55:01;;;;;;;6.65;3.72;;;;;;;8.71;83.26;99896.53;5073013;28;20036;-76
2023/04/13 05:57:26;;;;;;;6.63;3.70;;;;;;;8.83;82.21;99896.09;5071652;28;20040;-72
2023/04/13 05:59:52;;;;;;;7.30;4.45;;;;;;;8.95;83.63;99906.81;5074356;28;20418;-71
2023/04/13 06:02:19;;;;;;;7.55;4.85;;;;;;;8.88;82.22;99861.97;5074238;28;20406;-74
2023/04/13 06:04:44;;;;;;;11.00;7.20;;;;;;;9.19;83.58;99898.16;5073898;28;20040;-74
2023/04/13 06:07:13;;;;;;;9.15;5.07;;;;;;;8.86;84.38;99831.84;5074214;28;20037;-71
2023/04/13 06:09:38;;;;;;;7.07;5.30;;;;;;;9.36;82.43;99897.03;5074078;28;20040;-71
2023/04/13 06:12:04;;;;;;;8.35;4.20;;;;;;;9.52;82.63;99903.53;5056178;28;20040;-75
2023/04/13 06:14:30;;;;;;;6.00;3.85;;;;;;;9.65;81.43;99902.22;5073792;28;20078;-71
2023/04/13 06:16:56;;;;;;;8.82;4.30;;;;;;;9.81;82.42;99908.75;5072295;28;20416;-74
2023/04/13 06:19:21;;;;;;;5.53;2.83;;;;;;;9.74;72.37;99918.81;5074313;28;20033;-71
2023/04/13 06:21:47;;;;;;;5.80;2.88;;;;;;;9.42;72.64;99909.25;5021460;28;20514;-74
2023/04/13 06:24:12;;;;;;;7.07;3.20;;;;;;;9.41;75.28;99904.00;5073630;28;20032;-71
2023/04/13 06:26:38;;;;;;;5.32;3.00;;;;;;;9.52;76.44;99912.97;5073932;28;20063;-70
2023/04/13 06:29:03;;;;;;;5.75;3.30;;;;;;;9.58;75.03;99909.72;5073564;28;20406;-71
2023/04/13 06:31:29;;;;;;;4.90;2.72;;;;;;;9.70;70.86;99917.84;5073461;28;20079;-73
2023/04/13 06:33:54;;;;;;;4.10;2.63;;;;;;;9.81;68.22;99926.78;5055678;28;20052;-71
2023/04/13 06:36:20;;;;;;;5.32;3.08;;;;;;;9.90;67.19;99923.63;5073325;28;20048;-71
2023/04/13 06:38:45;;;;;;;7.68;3.30;;;;;;;9.95;68.44;99932.38;5073607;28;20039;-73
2023/04/13 06:41:10;;;;;;;5.40;2.58;;;;;;;9.91;69.97;99888.41;5073399;28;20521;-71
2023/04/13 06:43:36;;;;;;;7.70;3.80;;;;;;;10.06;68.47;99919.81;5073394;28;20039;-72
2023/04/13 06:46:03;;;;;;;9.23;5.20;;;;;;;10.25;71.00;99910.03;5073423;28;20033;-71
2023/04/13 06:48:29;;;;;;;12.00;6.70;;;;;;;10.38;69.69;99907.03;5073419;28;20028;-72
2023/04/13 06:50:56;;;;;;;7.65;3.45;;;;;;;10.55;68.75;99904.88;5073265;28;20402;-71
2023/04/13 06:53:21;;;;;;;6.30;3.35;;;;;;;10.62;68.51;99911.97;5073017;28;20379;-70
2023/04/13 06:55:47;;;;;;;5.35;2.80;;;;;;;10.56;70.39;99900.63;5073369;28;20071;-70
2023/04/13 06:58:12;;;;;;;10.75;3.72;;;;;;;10.86;67.19;99922.94;5071851;28;20040;-70
2023/04/13 07:00:38;;;;;;;5.78;2.80;;;;;;;10.88;65.87;99919.56;5072984;28;20418;-73
2023/04/13 07:03:03;;;;;;;6.90;2.75;;;;;;;10.98;65.78;99918.97;5072854;28;20044;-71
2023/04/13 07:05:29;;;;;;;6.82;3.05;;;;;;;11.11;66.90;99922.75;5072662;28;20414;-72
2023/04/13 07:07:55;;;;;;;7.57;2.90;;;;;;;11.13;68.07;99921.06;5072926;28;20128;-72
2023/04/13 07:10:21;;;;;;;5.55;3.45;;;;;;;11.15;72.13;99919.41;5071768;28;20044;-70
2023/04/13 07:12:47;;;;;;;48.47;33.72;;;;;;;11.30;72.80;99902.53;5072993;28;20039;-73
2023/04/13 07:15:13;;;;;;;7.57;4.07;;;;;;;11.80;72.42;99917.50;5073047;28;20047;-70
2023/04/13 07:17:39;;;;;;;5.93;3.33;;;;;;;11.78;72.17;99891.63;5072772;28;20032;-70
2023/04/13 07:20:06;;;;;;;4.43;3.05;;;;;;;11.88;71.76;99865.97;5072394;28;20109;-72
2023/04/13 07:22:35;;;;;;;5.25;3.13;;;;;;;12.19;69.65;99879.59;5072602;28;20503;-73
2023/04/13 07:25:00;;;;;;;5.05;2.80;;;;;;;12.57;68.56;99918.31;5072410;28;20044;-71
2023/04/13 07:27:26;;;;;;;7.13;3.05;;;;;;;12.71;69.79;99914.28;5072686;28;20045;-70
2023/04/13 07:29:53;;;;;;;6.15;3.05;;;;;;;12.95;67.73;99925.97;5072518;28;20032;-71
2023/04/13 07:32:19;;;;;;;4.28;2.85;;;;;;;13.10;65.49;99918.44;5072816;28;20029;-73
2023/04/13 07:34:45;;;;;;;5.13;2.88;;;;;;;13.25;65.23;99919.56;5003819;28;20047;-71
2023/04/13 07:37:11;;;;;;;5.60;2.90;;;;;;;13.18;59.88;99873.66;5072172;28;20048;-74
2023/04/13 07:39:36;;;;;;;6.60;2.92;;;;;;;13.64;58.55;99920.22;5072295;28;20033;-73
2023/04/13 07:42:01;;;;;;;5.90;2.67;;;;;;;13.73;56.03;99908.28;5072809;28;20032;-70
2023/04/13 07:44:27;;;;;;;6.88;2.90;;;;;;;13.56;60.45;99881.22;5072140;28;20043;-73
2023/04/13 07:46:56;;;;;;;6.70;3.55;;;;;;;13.33;62.44;99868.72;5072418;28;20053;-70
2023/04/13 07:49:22;;;;;;;6.65;2.90;;;;;;;13.70;61.76;99902.16;5072342;28;20489;-70
2023/04/13 07:51:48;;;;;;;4.57;2.75;;;;;;;13.84;59.46;99899.78;5072009;28;20124;-70
2023/04/13 07:54:15;;;;;;;4.43;2.35;;;;;;;13.62;52.91;99863.16;5053221;28;20043;-74
2023/04/13 07:56:40;;;;;;;3.65;2.60;;;;;;;13.84;55.88;99892.00;5072247;28;20033;-71
2023/04/13 07:59:05;;;;;;;7.43;2.78;;;;;;;14.03;57.43;99882.72;5072111;28;20036;-70
2023/04/13 08:01:31;;;;;;;3.58;1.92;;;;;;;14.29;52.21;99887.41;5070496;28;20037;-71
2023/04/13 08:03:57;;;;;;;3.20;1.80;;;;;;;14.25;51.68;99883.88;5071771;28;20066;-74
2023/04/13 08:06:23;;;;;;;4.43;2.28;;;;;;;14.45;53.73;99878.06;5071946;28;20056;-71
2023/04/13 08:08:48;;;;;;;4.13;1.80;;;;;;;14.37;48.82;99839.03;5071570;28;20111;-71
2023/04/13 08:11:15;;;;;;;3.78;1.88;;;;;;;14.52;48.08;99825.34;5071832;28;20041;-72
2023/04/13 08:13:40;;;;;;;3.30;1.85;;;;;;;14.86;48.60;99870.72;5071396;28;20040;-71
2023/04/13 08:16:07;;;;;;;3.60;2.17;;;;;;;15.02;49.25;99866.56;5069835;28;20033;-75
2023/04/13 08:18:32;;;;;;;2.72;1.73;;;;;;;15.10;49.13;99863.16;5071433;28;20553;-72
2023/04/13 08:20:58;;;;;;;4.28;2.00;;;;;;;14.96;47.33;99830.09;5070232;28;20051;-71
2023/04/13 08:23:24;;;;;;;4.93;1.80;;;;;;;15.01;48.65;99828.41;5071600;28;20028;-75
2023/04/13 08:25:50;;;;;;;4.97;2.08;;;;;;;15.33;48.17;99852.97;5071625;28;20106;-71
2023/04/13 08:28:15;;;;;;;3.17;1.75;;;;;;;15.37;50.01;99850.38;5071472;28;20399;-74
2023/04/13 08:30:41;;;;;;;3.92;1.75;;;;;;;15.46;46.47;99849.56;5070937;28;20552;-71
2023/04/13 08:33:07;;;;;;;7.32;1.90;;;;;;;15.45;47.36;99836.53;5071139;28;20043;-72
2023/04/13 08:35:38;;;;;;;8.68;4.25;;;;;;;15.10;47.75;99792.97;5071034;28;20063;-74
2023/04/13 08:38:06;;;;;;;5.15;1.90;;;;;;;15.42;47.05;99840.00;5080107;28;20044;-74
2023/04/13 08:40:37;;;;;;;2.45;1.50;;;;;;;15.52;47.51;99839.19;5091247;28;20398;-72
2023/04/13 08:43:03;;;;;;;3.97;1.80;;;;;;;15.52;48.88;99827.94;5073055;28;20079;-74
2023/04/13 08:45:30;;;;;;;2.22;1.38;;;;;;;15.84;46.22;99817.72;5091062;28;20056;-71
2023/04/13 08:48:21;;;;;;;2.95;1.42;;;;;;;16.07;47.66;99821.31;5086846;28;20102;-73
2023/04/13 08:50:51;;;;;;;2.17;1.52;;;;;;;15.96;44.21;99788.31;4990017;28;20038;-75
2023/04/13 08:53:17;;;;;;;3.70;1.73;;;;;;;16.06;46.42;99810.00;4985470;28;20492;-75
2023/04/13 08:55:47;;;;;;;2.20;1.40;;;;;;;16.33;48.16;99822.25;4982017;28;20046;-75
2023/04/13 08:58:19;;;;;;;4.60;1.23;;;;;;;16.37;49.60;99810.09;4980580;28;20138;-74
2023/04/13 09:00:48;;;;;;;2.47;1.52;;;;;;;16.53;47.78;99800.59;4986367;28;20116;-74
2023/04/13 09:03:22;;;;;;;2.67;1.58;;;;;;;16.57;45.15;99791.91;4971189;28;20046;-74
2023/04/13 09:06:03;;;;;;;3.40;1.50;;;;;;;16.57;48.96;99781.47;4975692;28;20488;-73
2023/04/13 09:08:34;;;;;;;3.67;1.23;;;;;;;16.65;47.31;99768.50;4973808;28;20058;-73
2023/04/13 09:11:03;;;;;;;1.40;1.23;;;;;;;17.01;43.19;99794.56;4984218;28;20117;-73
2023/04/13 09:13:29;;;;;;;4.43;1.45;;;;;;;16.65;42.65;99761.53;4988448;28;20038;-72
2023/04/13 09:15:55;;;;;;;2.20;1.23;;;;;;;16.88;42.15;99783.25;4978375;28;20054;-70
2023/04/13 09:18:21;;;;;;;3.60;1.70;;;;;;;17.13;45.88;99792.84;4971644;28;20034;-76
2023/04/13 09:20:57;;;;;;;2.75;1.60;;;;;;;17.35;46.86;99798.03;5001149;28;20135;-78
2023/04/13 09:23:23;;;;;;;3.88;1.67;;;;;;;17.53;47.23;99786.66;5089444;28;20036;-77
2023/04/13 09:26:03;;;;;;;2.00;1.20;;;;;;;17.57;48.40;99783.22;5090014;28;20036;-75
2023/04/13 09:28:29;;;;;;;3.30;1.65;;;;;;;17.57;48.37;99777.97;5095523;28;20115;-69
2023/04/13 09:31:02;;;;;;;2.50;1.70;;;;;;;17.72;48.94;99777.06;5089682;28;20054;-70
2023/04/13 09:33:33;;;;;;;2.65;1.42;;;;;;;17.90;45.52;99780.47;5091436;28;20047;-71
2023/04/13 09:36:08;;;;;;;1.80;1.15;;;;;;;17.78;35.60;99784.00;5083119;28;20044;-72
2023/04/13 09:38:34;;;;;;;3.70;1.40;;;;;;;17.66;36.68;99791.88;5084584;28;20097;-71
2023/04/13 09:41:00;;;;;;;2.75;1.17;;;;;;;17.41;37.67;99781.50;5078225;28;20043;-71
2023/04/13 09:43:37;;;;;;;4.00;1.50;;;;;;;17.58;36.89;99769.28;5085851;28;20114;-70
2023/04/13 09:46:03;;;;;;;2.38;1.40;;;;;;;17.86;39.74;99773.53;5091415;28;20035;-71
2023/04/13 09:48:29;;;;;;;3.70;1.50;;;;;;;18.08;40.47;99774.31;5090183;28;20032;-70
2023/04/13 09:51:01;;;;;;;2.97;1.60;;;;;;;18.08;42.65;99751.69;5090419;28;20050;-73
2023/04/13 09:53:37;;;;;;;2.47;1.42;;;;;;;18.35;41.39;99764.59;5089697;28;20036;-69
2023/04/13 09:56:03;;;;;;;2.58;1.35;;;;;;;18.42;35.01;99768.91;5086771;28;20047;-72
2023/04/13 09:58:30;;;;;;;5.82;2.45;;;;;;;18.27;34.76;99765.50;5080835;28;20043;-72
2023/04/13 10:00:55;;;;;;;3.95;1.58;;;;;;;18.27;36.60;99755.06;5074244;28;20040;-72
2023/04/13 10:03:22;;;;;;;3.05;1.45;;;;;;;18.56;36.69;99767.06;5074168;28;20037;-71
2023/04/13 10:05:48;;;;;;;2.20;1.48;;;;;;;18.60;35.95;99767.91;5085982;28;20092;-72
2023/04/13 10:08:14;;;;;;;5.38;1.70;;;;;;;18.80;36.84;99765.13;5090339;28;20032;-73
2023/04/13 10:10:40;;;;;;;4.65;1.33;;;;;;;19.02;35.24;99749.31;5089028;28;20035;-74
2023/04/13 10:13:17;;;;;;;2.22;1.33;;;;;;;19.00;34.66;99756.28;5089773;28;20040;-71
2023/04/13 10:15:55;;;;;;;2.92;1.20;;;;;;;18.51;35.85;99726.16;5089487;28;20032;-73
2023/04/13 10:18:51;;;;;;;3.10;1.35;;;;;;;19.08;36.85;99751.88;5089497;28;20040;-72
2023/04/13 10:21:18;;;;;;;2.45;1.23;;;;;;;18.81;34.13;99711.97;5080483;28;20054;-72
2023/04/13 10:23:44;;;;;;;2.30;1.10;;;;;;;18.51;33.73;99707.88;5089507;28;20482;-73
2023/04/13 10:26:11;;;;;;;1.95;1.30;;;;;;;18.90;35.38;99743.31;5071935;28;20043;-71
2023/04/13 10:28:47;;;;;;;1.50;1.27;;;;;;;19.16;35.56;99733.47;5089390;28;20036;-70
2023/04/13 10:31:13;;;;;;;3.83;1.27;;;;;;;19.26;34.65;99726.41;5089219;28;20401;-69
2023/04/13 10:33:49;;;;;;;3.97;2.20;;;;;;;19.66;34.81;99724.16;5071071;28;20039;-68
2023/04/13 10:36:15;;;;;;;3.30;1.60;;;;;;;19.74;35.37;99729.31;5089508;28;20044;-71
2023/04/13 10:38:45;;;;;;;2.50;1.30;;;;;;;19.84;35.33;99728.34;5089698;28;20102;-70
2023/04/13 10:41:31;;;;;;;3.05;1.30;;;;;;;19.83;36.08;99718.75;5089546;28;20040;-68
2023/04/13 10:44:01;;;;;;;4.28;1.38;;;;;;;19.69;37.09;99705.81;5088998;28;20040;-71
2023/04/13 10:46:27;;;;;;;4.20;1.23;;;;;;;19.43;36.23;99707.88;5092730;28;20107;-69
2023/04/13 10:48:57;;;;;;;1.70;1.50;;;;;;;19.44;36.07;99679.06;5093148;28;20502;-71
2023/04/13 10:51:45;;;;;;;2.40;1.40;;;;;;;19.77;36.87;99676.91;5093186;28;20123;-69
2023/04/13 10:54:13;;;;;;;2.92;1.38;;;;;;;20.17;37.13;99697.31;5090687;28;20104;-70
2023/04/13 10:56:39;;;;;;;3.40;1.27;;;;;;;20.12;34.56;99704.38;5079932;28;20047;-70
2023/04/13 10:59:05;;;;;;;6.78;1.77;;;;;;;20.13;34.18;99706.13;5088062;28;20081;-70
2023/04/13 11:01:30;;;;;;;3.63;1.60;;;;;;;20.53;34.35;99702.00;5073711;28;20028;-71
2023/04/13 11:04:02;;;;;;;3.80;1.60;;;;;;;20.84;33.66;99702.38;5087094;28;20040;-71
2023/04/13 11:06:36;;;;;;;2.55;1.58;;;;;;;20.69;33.64;99671.16;5076214;28;20131;-71
2023/04/13 11:09:05;;;;;;;2.70;1.33;;;;;;;20.64;33.40;99714.97;5091510;28;20371;-72
2023/04/13 11:11:31;;;;;;;1.95;1.27;;;;;;;20.26;33.15;99708.56;5092283;28;20468;-71
2023/04/13 11:13:58;;;;;;;2.30;1.27;;;;;;;20.56;31.58;99698.47;5092541;28;20375;-69
2023/04/13 11:16:24;;;;;;;4.97;1.60;;;;;;;20.75;31.90;99683.31;5092347;28;20034;-70
2023/04/13 11:19:03;;;;;;;2.63;1.45;;;;;;;20.87;32.60;99685.72;5089663;28;20040;-72
2023/04/13 11:21:30;;;;;;;2.07;1.20;;;;;;;20.48;31.70;99669.75;5080556;28;20037;-71
2023/04/13 11:24:00;;;;;;;1.75;1.20;;;;;;;20.76;32.63;99685.03;5079337;28;20670;-69
2023/04/13 11:26:37;;;;;;;3.42;1.40;;;;;;;20.90;30.63;99677.81;5075340;28;20678;-71
2023/04/13 14:32:35;;;;;;;2.55;2.00;;;;;;;22.05;36.13;99560.69;5073155;28;20502;-71
2023/04/13 14:35:02;;;;;;;3.47;2.20;;;;;;;22.02;36.51;99558.16;5073345;28;20131;-71
2023/04/13 14:37:27;;;;;;;2.83;2.10;;;;;;;22.05;38.12;99552.81;5088349;28;20032;-68
2023/04/13 14:39:56;;;;;;;4.50;2.03;;;;;;;21.95;38.32;99535.56;5093495;28;20120;-71
2023/04/13 14:42:23;;;;;;;4.20;2.10;;;;;;;21.97;38.21;99553.00;5091228;28;20036;-70
2023/04/13 14:44:50;;;;;;;3.38;2.20;;;;;;;21.93;38.17;99532.97;5078150;28;20477;-72